createdAt,value
2018-11-22T12:16:51.075Z,25.23
2018-11-22T12:19:19.540Z,24.03
2018-11-22T12:21:48.056Z,24.17
2018-11-22T12:24:16.498Z,25.80
2018-11-22T12:26:44.991Z,23.53
2018-11-22T12:29:13.445Z,27.63
2018-11-22T12:31:42.123Z,26.03
2018-11-22T12:34:14.811Z,25.30
2018-11-22T12:36:53.661Z,22.40
2018-11-22T12:39:22.599Z,26.07
2018-11-22T12:41:51.099Z,30.13
2018-11-22T12:44:19.577Z,24.37
2018-11-22T12:46:48.027Z,25.10
2018-11-22T12:49:16.532Z,26.73
2018-11-22T12:51:44.986Z,28.10
2018-11-22T12:54:13.482Z,27.10
2018-11-22T12:56:41.931Z,27.00
2018-11-22T12:59:10.403Z,28.50
2018-11-22T13:01:38.874Z,27.20
2018-11-22T13:04:07.363Z,23.37
2018-11-22T13:06:35.839Z,25.50
2018-11-22T13:09:06.203Z,26.00
2018-11-22T13:11:34.875Z,24.53
2018-11-22T13:14:03.402Z,25.10
2018-11-22T13:16:31.992Z,27.00
2018-11-22T13:19:00.460Z,26.87
2018-11-22T13:21:28.914Z,25.83
2018-11-22T13:23:57.357Z,24.90
2018-11-22T13:26:25.787Z,27.53
2018-11-22T13:28:54.234Z,24.17
2018-11-22T13:31:22.700Z,25.67
2018-11-22T13:33:51.147Z,27.10
2018-11-22T13:36:19.556Z,27.43
2018-11-22T13:38:47.999Z,25.97
2018-11-22T13:41:16.424Z,26.43
2018-11-22T13:43:44.945Z,24.90
2018-11-22T13:46:13.450Z,29.83
2018-11-22T13:48:41.989Z,28.37
2018-11-22T13:51:10.515Z,27.30
2018-11-22T13:53:39.011Z,27.07
2018-11-22T13:56:07.524Z,27.33
2018-11-22T13:58:36.069Z,28.07
2018-11-22T14:01:04.657Z,27.90
2018-11-22T14:03:33.152Z,28.13
2018-11-22T14:06:01.607Z,28.07
2018-11-22T14:08:30.260Z,31.70
2018-11-22T14:10:59.182Z,30.70
2018-11-22T14:13:27.722Z,28.30
2018-11-22T14:15:56.215Z,29.53
2018-11-22T14:18:24.671Z,32.23
2018-11-22T14:20:53.202Z,32.87
2018-11-22T14:23:21.680Z,34.37
2018-11-22T14:25:50.231Z,32.37
2018-11-22T14:28:18.732Z,30.90
2018-11-22T14:30:47.294Z,34.80
2018-11-22T14:33:15.817Z,30.03
2018-11-22T14:35:44.344Z,35.20
2018-11-22T14:38:12.815Z,36.33
2018-11-22T14:40:41.400Z,32.10
2018-11-22T14:43:09.931Z,34.17
2018-11-22T14:45:38.473Z,33.27
2018-11-22T14:48:07.009Z,32.77
2018-11-22T14:50:37.375Z,34.27
2018-11-22T14:53:11.388Z,31.80
2018-11-22T14:55:40.080Z,33.80
2018-11-22T14:58:09.252Z,33.33
2018-11-22T15:00:38.023Z,37.20
2018-11-22T15:03:06.940Z,32.10
2018-11-22T15:05:35.601Z,33.90
2018-11-22T15:08:04.338Z,32.60
2018-11-22T15:10:32.996Z,33.30
2018-11-22T15:13:01.675Z,34.97
2018-11-22T15:15:30.659Z,34.77
2018-11-22T15:17:59.383Z,33.13
2018-11-22T15:20:28.157Z,35.83
2018-11-22T15:22:56.912Z,34.10
2018-11-22T15:25:26.972Z,35.53
2018-11-22T15:27:55.948Z,36.13
2018-11-22T15:30:26.015Z,39.43
2018-11-22T15:32:54.868Z,39.97
2018-11-22T15:35:24.875Z,38.53
2018-11-22T15:37:54.053Z,31.60
2018-11-22T15:40:23.897Z,34.77
2018-11-22T15:42:54.988Z,36.90
2018-11-22T15:45:24.979Z,35.27
2018-11-22T15:47:53.733Z,32.50
2018-11-22T15:50:23.835Z,35.23
2018-11-22T15:52:52.843Z,35.70
2018-11-22T15:55:22.170Z,39.03
2018-11-22T15:57:52.147Z,35.33
2018-11-22T16:00:25.174Z,35.47
2018-11-22T16:02:54.496Z,37.60
2018-11-22T16:05:24.051Z,38.43
2018-11-22T16:07:52.854Z,39.90
2018-11-22T16:10:33.173Z,39.83
2018-11-22T16:13:04.263Z,40.50
2018-11-22T16:15:36.931Z,39.80
2018-11-22T16:18:05.951Z,43.83
2018-11-22T16:20:34.828Z,40.60
2018-11-22T16:23:03.666Z,41.93
2018-11-22T16:25:32.560Z,43.50
2018-11-22T16:28:01.333Z,41.07
2018-11-22T16:30:31.100Z,42.63
2018-11-22T16:32:59.822Z,38.37
2018-11-22T16:35:33.407Z,44.57
2018-11-22T16:37:58.218Z,42.80
